sensor_id;sensor_type;location;lat;lon;timestamp;temperature;humidity
46490;DHT22;32204;49.160;8.580;2023-04-30T00:01:41;13.20;1.00
46490;DHT22;32204;49.160;8.580;2023-04-30T00:04:06;13.10;1.00
46490;DHT22;32204;49.160;8.580;2023-04-30T00:06:32;13.00;1.00
46490;DHT22;32204;49.160;8.580;2023-04-30T00:08:58;13.10;96.20
46490;DHT22;32204;49.160;8.580;2023-04-30T00:11:23;13.10;1.00
46490;DHT22;32204;49.160;8.580;2023-04-30T00:13:50;13.20;1.00
46490;DHT22;32204;49.160;8.580;2023-04-30T00:16:16;13.30;1.00
46490;DHT22;32204;49.160;8.580;2023-04-30T00:18:42;13.40;1.00
46490;DHT22;32204;49.160;8.580;2023-04-30T00:21:08;13.50;99.90
46490;DHT22;32204;49.160;8.580;2023-04-30T00:23:34;13.50;99.90
46490;DHT22;32204;49.160;8.580;2023-04-30T00:25:59;13.50;99.90
46490;DHT22;32204;49.160;8.580;2023-04-30T00:28:26;13.60;99.90
46490;DHT22;32204;49.160;8.580;2023-04-30T00:30:51;13.60;99.90
46490;DHT22;32204;49.160;8.580;2023-04-30T00:33:17;13.70;99.90
46490;DHT22;32204;49.160;8.580;2023-04-30T00:35:43;13.70;99.90
46490;DHT22;32204;49.160;8.580;2023-04-30T00:38:08;13.70;99.90
46490;DHT22;32204;49.160;8.580;2023-04-30T00:40:34;13.70;99.90
46490;DHT22;32204;49.160;8.580;2023-04-30T00:43:00;13.80;99.90
46490;DHT22;32204;49.160;8.580;2023-04-30T00:45:26;13.80;1.00
46490;DHT22;32204;49.160;8.580;2023-04-30T00:47:51;13.80;33.50
46490;DHT22;32204;49.160;8.580;2023-04-30T00:50:17;13.60;99.90
46490;DHT22;32204;49.160;8.580;2023-04-30T00:52:43;13.60;99.90
46490;DHT22;32204;49.160;8.580;2023-04-30T00:55:10;13.60;27.60
46490;DHT22;32204;49.160;8.580;2023-04-30T00:57:37;13.70;99.90
46490;DHT22;32204;49.160;8.580;2023-04-30T01:00:03;13.70;99.90
46490;DHT22;32204;49.160;8.580;2023-04-30T01:02:29;13.70;99.90
46490;DHT22;32204;49.160;8.580;2023-04-30T01:04:56;13.70;1.00
46490;DHT22;32204;49.160;8.580;2023-04-30T01:07:23;13.70;99.90
46490;DHT22;32204;49.160;8.580;2023-04-30T01:09:49;13.70;99.90
46490;DHT22;32204;49.160;8.580;2023-04-30T01:15:30;13.80;99.90
46490;DHT22;32204;49.160;8.580;2023-04-30T01:18:06;13.70;99.90
46490;DHT22;32204;49.160;8.580;2023-04-30T01:20:36;13.60;99.90
46490;DHT22;32204;49.160;8.580;2023-04-30T01:29:02;13.30;99.90
46490;DHT22;32204;49.160;8.580;2023-04-30T01:31:28;13.30;1.00
46490;DHT22;32204;49.160;8.580;2023-04-30T01:33:54;13.30;81.70
46490;DHT22;32204;49.160;8.580;2023-04-30T01:39:40;13.20;1.00
46490;DHT22;32204;49.160;8.580;2023-04-30T01:42:12;13.10;53.00
46490;DHT22;32204;49.160;8.580;2023-04-30T01:47:52;13.10;99.90
46490;DHT22;32204;49.160;8.580;2023-04-30T01:52:50;13.00;99.90
46490;DHT22;32204;49.160;8.580;2023-04-30T01:55:20;13.00;99.90
46490;DHT22;32204;49.160;8.580;2023-04-30T01:57:58;12.90;99.90
46490;DHT22;32204;49.160;8.580;2023-04-30T02:00:28;12.80;99.90
46490;DHT22;32204;49.160;8.580;2023-04-30T02:02:58;12.80;99.90
46490;DHT22;32204;49.160;8.580;2023-04-30T02:05:23;12.90;99.90
46490;DHT22;32204;49.160;8.580;2023-04-30T02:07:50;13.00;99.90
46490;DHT22;32204;49.160;8.580;2023-04-30T02:10:19;12.90;99.90
46490;DHT22;32204;49.160;8.580;2023-04-30T02:12:45;12.80;99.90
46490;DHT22;32204;49.160;8.580;2023-04-30T02:15:11;12.70;99.90
46490;DHT22;32204;49.160;8.580;2023-04-30T02:17:36;12.70;99.90
46490;DHT22;32204;49.160;8.580;2023-04-30T02:20:02;12.60;1.00
46490;DHT22;32204;49.160;8.580;2023-04-30T02:22:28;12.60;1.00
46490;DHT22;32204;49.160;8.580;2023-04-30T02:24:54;12.50;99.90
46490;DHT22;32204;49.160;8.580;2023-04-30T02:27:21;12.50;1.00
46490;DHT22;32204;49.160;8.580;2023-04-30T02:29:47;12.50;1.00
46490;DHT22;32204;49.160;8.580;2023-04-30T02:32:13;12.40;99.90
46490;DHT22;32204;49.160;8.580;2023-04-30T02:34:39;12.40;1.00
46490;DHT22;32204;49.160;8.580;2023-04-30T02:37:05;12.40;1.00
46490;DHT22;32204;49.160;8.580;2023-04-30T02:39:31;12.40;99.90
46490;DHT22;32204;49.160;8.580;2023-04-30T02:41:57;12.40;1.00
46490;DHT22;32204;49.160;8.580;2023-04-30T02:44:22;12.40;99.90
46490;DHT22;32204;49.160;8.580;2023-04-30T02:46:48;12.40;99.90
46490;DHT22;32204;49.160;8.580;2023-04-30T02:49:13;12.40;1.00
46490;DHT22;32204;49.160;8.580;2023-04-30T02:51:39;12.40;1.00
46490;DHT22;32204;49.160;8.580;2023-04-30T02:54:05;12.50;99.90
46490;DHT22;32204;49.160;8.580;2023-04-30T02:56:30;12.50;99.90
46490;DHT22;32204;49.160;8.580;2023-04-30T02:58:56;12.50;99.90
46490;DHT22;32204;49.160;8.580;2023-04-30T03:01:22;12.60;99.90
46490;DHT22;32204;49.160;8.580;2023-04-30T03:03:47;12.70;99.90
46490;DHT22;32204;49.160;8.580;2023-04-30T03:06:13;12.70;99.90
46490;DHT22;32204;49.160;8.580;2023-04-30T03:08:38;12.60;99.90
46490;DHT22;32204;49.160;8.580;2023-04-30T03:11:04;12.50;99.90
46490;DHT22;32204;49.160;8.580;2023-04-30T03:13:30;12.50;99.90
46490;DHT22;32204;49.160;8.580;2023-04-30T03:15:57;12.50;99.90
46490;DHT22;32204;49.160;8.580;2023-04-30T03:18:23;12.60;99.90
46490;DHT22;32204;49.160;8.580;2023-04-30T03:20:49;12.50;99.90
46490;DHT22;32204;49.160;8.580;2023-04-30T03:23:14;12.50;99.90
46490;DHT22;32204;49.160;8.580;2023-04-30T03:25:40;12.40;99.90
46490;DHT22;32204;49.160;8.580;2023-04-30T03:28:05;12.40;99.90
46490;DHT22;32204;49.160;8.580;2023-04-30T03:30:31;12.40;99.90
46490;DHT22;32204;49.160;8.580;2023-04-30T03:32:56;12.40;99.90
46490;DHT22;32204;49.160;8.580;2023-04-30T03:35:22;12.40;99.90
46490;DHT22;32204;49.160;8.580;2023-04-30T03:37:48;12.50;13.10
46490;DHT22;32204;49.160;8.580;2023-04-30T03:40:13;12.40;79.20
46490;DHT22;32204;49.160;8.580;2023-04-30T03:42:39;12.30;79.40
46490;DHT22;32204;49.160;8.580;2023-04-30T03:45:05;12.30;99.90
46490;DHT22;32204;49.160;8.580;2023-04-30T03:47:31;12.30;11.50
46490;DHT22;32204;49.160;8.580;2023-04-30T03:49:57;12.30;1.00
46490;DHT22;32204;49.160;8.580;2023-04-30T03:52:22;12.30;1.00
46490;DHT22;32204;49.160;8.580;2023-04-30T03:54:48;12.30;1.00
46490;DHT22;32204;49.160;8.580;2023-04-30T03:57:14;12.20;1.00
46490;DHT22;32204;49.160;8.580;2023-04-30T03:59:40;12.20;99.90
46490;DHT22;32204;49.160;8.580;2023-04-30T04:02:06;12.30;1.00
46490;DHT22;32204;49.160;8.580;2023-04-30T04:04:32;12.30;99.90
46490;DHT22;32204;49.160;8.580;2023-04-30T04:06:58;12.30;99.90
46490;DHT22;32204;49.160;8.580;2023-04-30T04:09:24;12.40;99.90
46490;DHT22;32204;49.160;8.580;2023-04-30T04:11:49;12.30;99.90
46490;DHT22;32204;49.160;8.580;2023-04-30T04:14:15;12.30;1.00
46490;DHT22;32204;49.160;8.580;2023-04-30T04:16:41;12.40;99.90
46490;DHT22;32204;49.160;8.580;2023-04-30T04:19:07;12.40;99.90
46490;DHT22;32204;49.160;8.580;2023-04-30T04:21:32;12.40;99.90
46490;DHT22;32204;49.160;8.580;2023-04-30T04:23:58;12.30;99.90
46490;DHT22;32204;49.160;8.580;2023-04-30T04:26:24;12.30;99.90
46490;DHT22;32204;49.160;8.580;2023-04-30T04:28:50;12.40;99.90
46490;DHT22;32204;49.160;8.580;2023-04-30T04:31:16;12.40;1.00
46490;DHT22;32204;49.160;8.580;2023-04-30T04:33:43;12.50;99.90
46490;DHT22;32204;49.160;8.580;2023-04-30T04:36:08;12.50;99.90
46490;DHT22;32204;49.160;8.580;2023-04-30T04:38:34;12.50;99.90
46490;DHT22;32204;49.160;8.580;2023-04-30T04:40:59;12.60;99.90
46490;DHT22;32204;49.160;8.580;2023-04-30T04:43:25;12.70;99.90
46490;DHT22;32204;49.160;8.580;2023-04-30T04:45:50;12.80;99.90
46490;DHT22;32204;49.160;8.580;2023-04-30T04:48:19;12.80;99.90
46490;DHT22;32204;49.160;8.580;2023-04-30T04:50:44;12.70;1.00
46490;DHT22;32204;49.160;8.580;2023-04-30T04:53:10;12.50;95.50
46490;DHT22;32204;49.160;8.580;2023-04-30T04:55:35;12.50;47.50
46490;DHT22;32204;49.160;8.580;2023-04-30T04:58:01;12.50;97.90
46490;DHT22;32204;49.160;8.580;2023-04-30T05:00:27;12.40;1.00
46490;DHT22;32204;49.160;8.580;2023-04-30T05:02:54;12.40;99.90
46490;DHT22;32204;49.160;8.580;2023-04-30T05:05:19;12.30;99.90
46490;DHT22;32204;49.160;8.580;2023-04-30T05:07:45;12.40;99.90
46490;DHT22;32204;49.160;8.580;2023-04-30T05:10:11;12.50;1.30
46490;DHT22;32204;49.160;8.580;2023-04-30T05:12:36;12.50;1.00
46490;DHT22;32204;49.160;8.580;2023-04-30T05:15:04;12.50;99.90
46490;DHT22;32204;49.160;8.580;2023-04-30T05:17:30;12.50;99.90
46490;DHT22;32204;49.160;8.580;2023-04-30T05:19:56;12.50;99.90
46490;DHT22;32204;49.160;8.580;2023-04-30T05:22:22;12.50;99.90
46490;DHT22;32204;49.160;8.580;2023-04-30T05:24:47;12.50;99.90
46490;DHT22;32204;49.160;8.580;2023-04-30T05:27:13;12.60;99.90
46490;DHT22;32204;49.160;8.580;2023-04-30T05:29:39;12.70;1.00
46490;DHT22;32204;49.160;8.580;2023-04-30T05:32:07;12.60;1.00
46490;DHT22;32204;49.160;8.580;2023-04-30T05:34:33;12.60;1.00
46490;DHT22;32204;49.160;8.580;2023-04-30T05:36:58;12.60;14.40
46490;DHT22;32204;49.160;8.580;2023-04-30T05:39:24;12.60;1.00
46490;DHT22;32204;49.160;8.580;2023-04-30T05:41:49;12.60;1.00
46490;DHT22;32204;49.160;8.580;2023-04-30T05:44:15;12.70;64.60
46490;DHT22;32204;49.160;8.580;2023-04-30T05:46:40;12.80;1.00
46490;DHT22;32204;49.160;8.580;2023-04-30T05:49:06;13.10;84.50
46490;DHT22;32204;49.160;8.580;2023-04-30T05:51:32;14.00;99.90
46490;DHT22;32204;49.160;8.580;2023-04-30T05:53:57;14.70;1.00
46490;DHT22;32204;49.160;8.580;2023-04-30T05:56:23;14.80;1.00
46490;DHT22;32204;49.160;8.580;2023-04-30T05:58:49;15.50;58.80
46490;DHT22;32204;49.160;8.580;2023-04-30T06:01:18;15.90;99.90
46490;DHT22;32204;49.160;8.580;2023-04-30T06:03:43;15.80;1.00
46490;DHT22;32204;49.160;8.580;2023-04-30T06:06:09;17.10;99.90
46490;DHT22;32204;49.160;8.580;2023-04-30T06:08:35;17.00;1.00
46490;DHT22;32204;49.160;8.580;2023-04-30T06:11:01;17.50;99.90
46490;DHT22;32204;49.160;8.580;2023-04-30T06:13:28;17.30;99.90
46490;DHT22;32204;49.160;8.580;2023-04-30T06:15:53;17.30;99.90
46490;DHT22;32204;49.160;8.580;2023-04-30T06:18:19;17.50;99.90
46490;DHT22;32204;49.160;8.580;2023-04-30T06:20:45;18.10;99.90
46490;DHT22;32204;49.160;8.580;2023-04-30T06:23:11;18.20;96.90
46490;DHT22;32204;49.160;8.580;2023-04-30T06:25:36;18.10;48.30
46490;DHT22;32204;49.160;8.580;2023-04-30T06:28:02;17.70;99.90
46490;DHT22;32204;49.160;8.580;2023-04-30T06:30:27;18.20;99.90
46490;DHT22;32204;49.160;8.580;2023-04-30T06:32:55;18.80;46.50
46490;DHT22;32204;49.160;8.580;2023-04-30T06:35:21;18.70;1.00
46490;DHT22;32204;49.160;8.580;2023-04-30T06:37:47;18.80;1.00
46490;DHT22;32204;49.160;8.580;2023-04-30T06:40:12;19.20;1.00
46490;DHT22;32204;49.160;8.580;2023-04-30T06:42:38;19.30;1.00
46490;DHT22;32204;49.160;8.580;2023-04-30T06:45:04;20.20;1.00
46490;DHT22;32204;49.160;8.580;2023-04-30T06:47:33;19.60;1.00
46490;DHT22;32204;49.160;8.580;2023-04-30T06:50:02;17.80;1.00
46490;DHT22;32204;49.160;8.580;2023-04-30T06:52:29;16.70;99.90
46490;DHT22;32204;49.160;8.580;2023-04-30T06:54:55;16.20;1.00
46490;DHT22;32204;49.160;8.580;2023-04-30T06:57:21;15.90;99.90
46490;DHT22;32204;49.160;8.580;2023-04-30T06:59:47;15.60;99.90
46490;DHT22;32204;49.160;8.580;2023-04-30T07:02:12;15.20;99.90
46490;DHT22;32204;49.160;8.580;2023-04-30T07:04:38;14.80;1.00
46490;DHT22;32204;49.160;8.580;2023-04-30T07:07:03;14.90;1.00
46490;DHT22;32204;49.160;8.580;2023-04-30T07:09:29;14.80;1.00
46490;DHT22;32204;49.160;8.580;2023-04-30T07:11:56;15.30;1.00
46490;DHT22;32204;49.160;8.580;2023-04-30T07:14:21;16.90;1.00
46490;DHT22;32204;49.160;8.580;2023-04-30T07:16:49;17.70;99.90
46490;DHT22;32204;49.160;8.580;2023-04-30T07:19:15;17.70;99.90
46490;DHT22;32204;49.160;8.580;2023-04-30T07:21:40;17.60;99.90
46490;DHT22;32204;49.160;8.580;2023-04-30T07:24:06;17.00;99.90
46490;DHT22;32204;49.160;8.580;2023-04-30T07:26:32;16.60;99.90
46490;DHT22;32204;49.160;8.580;2023-04-30T07:28:57;16.40;99.90
46490;DHT22;32204;49.160;8.580;2023-04-30T07:31:23;16.00;1.00
46490;DHT22;32204;49.160;8.580;2023-04-30T07:33:50;15.80;1.00
46490;DHT22;32204;49.160;8.580;2023-04-30T07:36:16;15.80;99.90
46490;DHT22;32204;49.160;8.580;2023-04-30T07:38:42;15.70;27.00
46490;DHT22;32204;49.160;8.580;2023-04-30T07:41:08;15.50;14.70
46490;DHT22;32204;49.160;8.580;2023-04-30T07:43:41;15.50;99.90
46490;DHT22;32204;49.160;8.580;2023-04-30T07:46:07;15.50;99.90
46490;DHT22;32204;49.160;8.580;2023-04-30T07:48:33;15.60;99.90
46490;DHT22;32204;49.160;8.580;2023-04-30T07:50:58;15.60;1.00
46490;DHT22;32204;49.160;8.580;2023-04-30T07:53:24;15.50;99.90
46490;DHT22;32204;49.160;8.580;2023-04-30T07:55:49;15.50;99.90
46490;DHT22;32204;49.160;8.580;2023-04-30T07:58:15;15.70;99.90
46490;DHT22;32204;49.160;8.580;2023-04-30T08:00:41;15.70;99.90
46490;DHT22;32204;49.160;8.580;2023-04-30T08:03:06;15.70;99.90
46490;DHT22;32204;49.160;8.580;2023-04-30T08:05:32;15.80;42.40
46490;DHT22;32204;49.160;8.580;2023-04-30T08:07:58;15.90;1.00
46490;DHT22;32204;49.160;8.580;2023-04-30T08:10:24;16.00;1.00
46490;DHT22;32204;49.160;8.580;2023-04-30T08:12:50;15.90;1.00
46490;DHT22;32204;49.160;8.580;2023-04-30T08:15:17;16.00;1.00
46490;DHT22;32204;49.160;8.580;2023-04-30T08:17:48;16.00;1.00
46490;DHT22;32204;49.160;8.580;2023-04-30T08:20:14;15.90;1.00
46490;DHT22;32204;49.160;8.580;2023-04-30T08:22:40;16.00;1.00
46490;DHT22;32204;49.160;8.580;2023-04-30T08:25:05;16.20;1.00
46490;DHT22;32204;49.160;8.580;2023-04-30T08:27:31;16.10;99.90
46490;DHT22;32204;49.160;8.580;2023-04-30T08:29:57;16.20;99.90
46490;DHT22;32204;49.160;8.580;2023-04-30T08:32:22;16.30;99.90
46490;DHT22;32204;49.160;8.580;2023-04-30T08:34:48;16.30;99.90
46490;DHT22;32204;49.160;8.580;2023-04-30T08:37:14;16.20;99.90
46490;DHT22;32204;49.160;8.580;2023-04-30T08:39:40;16.30;99.90
46490;DHT22;32204;49.160;8.580;2023-04-30T08:42:08;16.10;99.90
46490;DHT22;32204;49.160;8.580;2023-04-30T08:44:36;16.30;99.90
46490;DHT22;32204;49.160;8.580;2023-04-30T08:47:06;16.50;99.90
46490;DHT22;32204;49.160;8.580;2023-04-30T08:49:32;16.70;99.90
46490;DHT22;32204;49.160;8.580;2023-04-30T08:51:58;16.90;96.30
46490;DHT22;32204;49.160;8.580;2023-04-30T08:54:27;17.00;59.30
46490;DHT22;32204;49.160;8.580;2023-04-30T08:56:54;16.90;10.80
46490;DHT22;32204;49.160;8.580;2023-04-30T08:59:20;16.90;1.00
46490;DHT22;32204;49.160;8.580;2023-04-30T09:01:46;17.00;1.00
46490;DHT22;32204;49.160;8.580;2023-04-30T09:04:12;17.00;3.40
46490;DHT22;32204;49.160;8.580;2023-04-30T09:06:37;17.00;1.00
46490;DHT22;32204;49.160;8.580;2023-04-30T09:09:12;17.10;1.00
46490;DHT22;32204;49.160;8.580;2023-04-30T09:11:38;17.30;1.00
46490;DHT22;32204;49.160;8.580;2023-04-30T09:14:04;17.10;1.00
46490;DHT22;32204;49.160;8.580;2023-04-30T09:16:44;17.30;1.00
46490;DHT22;32204;49.160;8.580;2023-04-30T09:19:24;17.40;1.00
46490;DHT22;32204;49.160;8.580;2023-04-30T09:21:50;17.70;1.00
46490;DHT22;32204;49.160;8.580;2023-04-30T09:24:16;17.80;1.00
46490;DHT22;32204;49.160;8.580;2023-04-30T09:26:42;17.80;1.00
46490;DHT22;32204;49.160;8.580;2023-04-30T09:29:08;17.90;99.90
46490;DHT22;32204;49.160;8.580;2023-04-30T09:31:39;18.00;99.90
46490;DHT22;32204;49.160;8.580;2023-04-30T09:34:05;18.00;99.90
46490;DHT22;32204;49.160;8.580;2023-04-30T09:36:31;17.90;99.90
46490;DHT22;32204;49.160;8.580;2023-04-30T09:39:07;17.70;99.90
46490;DHT22;32204;49.160;8.580;2023-04-30T09:41:34;17.80;99.90
46490;DHT22;32204;49.160;8.580;2023-04-30T09:44:01;17.60;99.90
46490;DHT22;32204;49.160;8.580;2023-04-30T09:46:31;17.50;99.90
46490;DHT22;32204;49.160;8.580;2023-04-30T09:49:05;17.60;99.90
46490;DHT22;32204;49.160;8.580;2023-04-30T09:51:31;17.80;99.90
46490;DHT22;32204;49.160;8.580;2023-04-30T09:53:57;18.10;99.90
46490;DHT22;32204;49.160;8.580;2023-04-30T09:56:27;18.30;99.90
46490;DHT22;32204;49.160;8.580;2023-04-30T09:58:54;18.10;99.90
46490;DHT22;32204;49.160;8.580;2023-04-30T10:01:21;17.90;99.90
46490;DHT22;32204;49.160;8.580;2023-04-30T10:03:49;17.60;99.90
46490;DHT22;32204;49.160;8.580;2023-04-30T10:06:15;17.50;99.90
46490;DHT22;32204;49.160;8.580;2023-04-30T10:08:46;17.30;99.90
46490;DHT22;32204;49.160;8.580;2023-04-30T10:11:17;17.40;99.90
46490;DHT22;32204;49.160;8.580;2023-04-30T10:13:59;17.40;99.90
46490;DHT22;32204;49.160;8.580;2023-04-30T10:16:38;17.20;99.90
46490;DHT22;32204;49.160;8.580;2023-04-30T10:19:13;17.20;99.90
46490;DHT22;32204;49.160;8.580;2023-04-30T10:21:41;17.20;99.90
46490;DHT22;32204;49.160;8.580;2023-04-30T10:24:09;17.00;99.90
46490;DHT22;32204;49.160;8.580;2023-04-30T10:26:36;17.00;99.90
46490;DHT22;32204;49.160;8.580;2023-04-30T10:29:02;16.90;99.90
46490;DHT22;32204;49.160;8.580;2023-04-30T10:31:30;16.90;99.90
46490;DHT22;32204;49.160;8.580;2023-04-30T10:34:17;17.00;99.90
46490;DHT22;32204;49.160;8.580;2023-04-30T10:36:56;17.10;99.90
46490;DHT22;32204;49.160;8.580;2023-04-30T10:39:24;17.10;99.90
46490;DHT22;32204;49.160;8.580;2023-04-30T10:42:08;17.10;99.90
46490;DHT22;32204;49.160;8.580;2023-04-30T10:44:38;17.20;99.90
46490;DHT22;32204;49.160;8.580;2023-04-30T10:47:05;17.20;99.90
46490;DHT22;32204;49.160;8.580;2023-04-30T10:49:31;17.20;99.90
46490;DHT22;32204;49.160;8.580;2023-04-30T10:52:01;17.10;99.90
46490;DHT22;32204;49.160;8.580;2023-04-30T10:54:35;17.10;99.90
46490;DHT22;32204;49.160;8.580;2023-04-30T10:57:16;17.20;99.90
46490;DHT22;32204;49.160;8.580;2023-04-30T11:00:17;17.30;99.90
46490;DHT22;32204;49.160;8.580;2023-04-30T11:02:40;17.30;99.90
46490;DHT22;32204;49.160;8.580;2023-04-30T11:05:13;17.30;99.90
46490;DHT22;32204;49.160;8.580;2023-04-30T11:07:56;17.50;99.90
46490;DHT22;32204;49.160;8.580;2023-04-30T11:10:24;17.40;99.90
46490;DHT22;32204;49.160;8.580;2023-04-30T11:12:52;17.30;99.90
46490;DHT22;32204;49.160;8.580;2023-04-30T11:15:20;17.30;99.90
46490;DHT22;32204;49.160;8.580;2023-04-30T11:17:48;17.30;99.90
46490;DHT22;32204;49.160;8.580;2023-04-30T11:20:19;17.40;99.90
46490;DHT22;32204;49.160;8.580;2023-04-30T11:22:45;17.40;99.90
46490;DHT22;32204;49.160;8.580;2023-04-30T11:25:11;17.40;99.90
46490;DHT22;32204;49.160;8.580;2023-04-30T11:27:40;17.50;99.90
46490;DHT22;32204;49.160;8.580;2023-04-30T11:30:11;17.40;99.90
46490;DHT22;32204;49.160;8.580;2023-04-30T11:32:38;17.30;99.90
46490;DHT22;32204;49.160;8.580;2023-04-30T11:35:05;17.30;99.90
46490;DHT22;32204;49.160;8.580;2023-04-30T11:37:40;17.20;99.90
46490;DHT22;32204;49.160;8.580;2023-04-30T11:40:12;17.40;99.90
46490;DHT22;32204;49.160;8.580;2023-04-30T11:42:39;17.50;99.90
46490;DHT22;32204;49.160;8.580;2023-04-30T11:47:44;17.50;99.90
46490;DHT22;32204;49.160;8.580;2023-04-30T11:50:11;17.60;99.90
46490;DHT22;32204;49.160;8.580;2023-04-30T11:52:38;17.70;99.90
46490;DHT22;32204;49.160;8.580;2023-04-30T11:55:07;17.90;99.90
46490;DHT22;32204;49.160;8.580;2023-04-30T11:57:40;17.70;99.90
46490;DHT22;32204;49.160;8.580;2023-04-30T12:00:09;17.60;99.90
46490;DHT22;32204;49.160;8.580;2023-04-30T12:02:35;17.80;99.90
46490;DHT22;32204;49.160;8.580;2023-04-30T12:05:01;17.70;99.90
46490;DHT22;32204;49.160;8.580;2023-04-30T12:07:27;17.70;99.90
46490;DHT22;32204;49.160;8.580;2023-04-30T12:09:55;17.70;99.90
46490;DHT22;32204;49.160;8.580;2023-04-30T12:12:30;17.70;99.90
46490;DHT22;32204;49.160;8.580;2023-04-30T12:14:56;17.80;99.90
46490;DHT22;32204;49.160;8.580;2023-04-30T12:17:33;17.80;99.90
46490;DHT22;32204;49.160;8.580;2023-04-30T12:19:59;17.90;99.90
46490;DHT22;32204;49.160;8.580;2023-04-30T12:22:25;18.00;99.90
46490;DHT22;32204;49.160;8.580;2023-04-30T12:24:51;18.00;99.90
46490;DHT22;32204;49.160;8.580;2023-04-30T12:27:16;17.90;99.90
46490;DHT22;32204;49.160;8.580;2023-04-30T12:29:43;17.90;99.90
46490;DHT22;32204;49.160;8.580;2023-04-30T12:32:13;17.90;99.90
46490;DHT22;32204;49.160;8.580;2023-04-30T12:34:43;17.90;99.90
46490;DHT22;32204;49.160;8.580;2023-04-30T12:37:09;18.00;99.90
46490;DHT22;32204;49.160;8.580;2023-04-30T12:39:35;17.90;99.90
46490;DHT22;32204;49.160;8.580;2023-04-30T12:42:02;17.90;99.90
46490;DHT22;32204;49.160;8.580;2023-04-30T12:44:28;18.00;99.90
46490;DHT22;32204;49.160;8.580;2023-04-30T12:46:55;18.10;99.90
46490;DHT22;32204;49.160;8.580;2023-04-30T12:49:34;18.20;99.90
46490;DHT22;32204;49.160;8.580;2023-04-30T12:52:02;18.30;99.90
46490;DHT22;32204;49.160;8.580;2023-04-30T12:54:29;18.40;99.90
46490;DHT22;32204;49.160;8.580;2023-04-30T12:57:03;18.30;99.90
46490;DHT22;32204;49.160;8.580;2023-04-30T12:59:33;18.30;99.90
46490;DHT22;32204;49.160;8.580;2023-04-30T13:02:09;18.20;99.90
46490;DHT22;32204;49.160;8.580;2023-04-30T13:04:36;18.40;99.90
46490;DHT22;32204;49.160;8.580;2023-04-30T13:07:02;18.70;99.90
46490;DHT22;32204;49.160;8.580;2023-04-30T13:09:30;18.80;99.90
46490;DHT22;32204;49.160;8.580;2023-04-30T13:11:56;18.90;99.90
46490;DHT22;32204;49.160;8.580;2023-04-30T13:14:22;18.90;99.90
46490;DHT22;32204;49.160;8.580;2023-04-30T13:16:47;18.90;99.90
46490;DHT22;32204;49.160;8.580;2023-04-30T13:19:13;19.00;99.90
46490;DHT22;32204;49.160;8.580;2023-04-30T13:21:39;19.00;99.90
46490;DHT22;32204;49.160;8.580;2023-04-30T13:24:05;19.00;99.90
46490;DHT22;32204;49.160;8.580;2023-04-30T13:26:31;19.00;99.90
46490;DHT22;32204;49.160;8.580;2023-04-30T13:28:56;19.20;99.90
46490;DHT22;32204;49.160;8.580;2023-04-30T13:31:22;19.40;99.90
46490;DHT22;32204;49.160;8.580;2023-04-30T13:33:48;19.60;99.90
46490;DHT22;32204;49.160;8.580;2023-04-30T13:36:14;19.40;99.90
46490;DHT22;32204;49.160;8.580;2023-04-30T13:38:39;19.40;99.90
46490;DHT22;32204;49.160;8.580;2023-04-30T13:41:06;19.20;99.90
46490;DHT22;32204;49.160;8.580;2023-04-30T13:43:31;19.00;99.90
46490;DHT22;32204;49.160;8.580;2023-04-30T13:45:57;19.10;99.90
46490;DHT22;32204;49.160;8.580;2023-04-30T13:48:23;19.10;99.90
46490;DHT22;32204;49.160;8.580;2023-04-30T13:50:52;18.90;99.90
46490;DHT22;32204;49.160;8.580;2023-04-30T13:53:18;18.80;99.90
46490;DHT22;32204;49.160;8.580;2023-04-30T13:55:44;18.60;99.90
46490;DHT22;32204;49.160;8.580;2023-04-30T13:58:09;18.50;99.90
46490;DHT22;32204;49.160;8.580;2023-04-30T14:00:35;18.70;99.90
46490;DHT22;32204;49.160;8.580;2023-04-30T14:03:01;18.90;99.90
46490;DHT22;32204;49.160;8.580;2023-04-30T14:05:26;19.00;99.90
46490;DHT22;32204;49.160;8.580;2023-04-30T14:07:52;19.00;99.90
46490;DHT22;32204;49.160;8.580;2023-04-30T14:10:18;18.80;99.90
46490;DHT22;32204;49.160;8.580;2023-04-30T14:12:43;18.50;99.90
46490;DHT22;32204;49.160;8.580;2023-04-30T14:15:09;18.70;99.90
46490;DHT22;32204;49.160;8.580;2023-04-30T14:17:35;18.80;99.90
46490;DHT22;32204;49.160;8.580;2023-04-30T14:20:00;19.10;99.90
46490;DHT22;32204;49.160;8.580;2023-04-30T14:22:26;19.20;99.90
46490;DHT22;32204;49.160;8.580;2023-04-30T14:24:52;19.10;99.90
46490;DHT22;32204;49.160;8.580;2023-04-30T14:27:18;19.10;99.90
46490;DHT22;32204;49.160;8.580;2023-04-30T14:29:43;19.20;99.90
46490;DHT22;32204;49.160;8.580;2023-04-30T14:32:11;19.20;99.90
46490;DHT22;32204;49.160;8.580;2023-04-30T14:34:37;19.30;99.90
46490;DHT22;32204;49.160;8.580;2023-04-30T14:37:02;19.40;99.90
46490;DHT22;32204;49.160;8.580;2023-04-30T14:39:28;19.50;99.90
46490;DHT22;32204;49.160;8.580;2023-04-30T14:41:54;19.60;99.90
46490;DHT22;32204;49.160;8.580;2023-04-30T14:44:21;19.60;99.90
46490;DHT22;32204;49.160;8.580;2023-04-30T14:46:48;19.50;99.90
46490;DHT22;32204;49.160;8.580;2023-04-30T14:49:13;19.70;99.90
46490;DHT22;32204;49.160;8.580;2023-04-30T14:51:39;19.60;99.90
46490;DHT22;32204;49.160;8.580;2023-04-30T14:54:05;19.60;99.90
46490;DHT22;32204;49.160;8.580;2023-04-30T14:56:30;19.60;99.90
46490;DHT22;32204;49.160;8.580;2023-04-30T14:58:56;19.40;99.90
46490;DHT22;32204;49.160;8.580;2023-04-30T15:01:21;19.30;99.90
46490;DHT22;32204;49.160;8.580;2023-04-30T15:03:47;19.40;99.90
46490;DHT22;32204;49.160;8.580;2023-04-30T15:06:13;19.40;99.90
46490;DHT22;32204;49.160;8.580;2023-04-30T15:08:39;19.40;99.90
46490;DHT22;32204;49.160;8.580;2023-04-30T15:11:05;19.50;99.90
46490;DHT22;32204;49.160;8.580;2023-04-30T15:13:34;19.60;99.90
46490;DHT22;32204;49.160;8.580;2023-04-30T15:16:00;19.50;99.90
46490;DHT22;32204;49.160;8.580;2023-04-30T15:18:25;19.40;99.90
46490;DHT22;32204;49.160;8.580;2023-04-30T15:20:51;19.40;99.90
46490;DHT22;32204;49.160;8.580;2023-04-30T15:23:17;19.40;99.90
46490;DHT22;32204;49.160;8.580;2023-04-30T15:25:42;19.30;99.90
46490;DHT22;32204;49.160;8.580;2023-04-30T15:28:08;19.00;99.90
46490;DHT22;32204;49.160;8.580;2023-04-30T15:30:34;19.10;99.90
46490;DHT22;32204;49.160;8.580;2023-04-30T15:33:00;19.20;99.90
46490;DHT22;32204;49.160;8.580;2023-04-30T15:35:26;19.30;99.90
46490;DHT22;32204;49.160;8.580;2023-04-30T15:37:52;19.20;99.90
46490;DHT22;32204;49.160;8.580;2023-04-30T15:40:18;19.20;99.90
46490;DHT22;32204;49.160;8.580;2023-04-30T15:42:44;19.20;99.90
46490;DHT22;32204;49.160;8.580;2023-04-30T15:45:10;19.20;99.90
46490;DHT22;32204;49.160;8.580;2023-04-30T15:47:39;19.20;99.90
46490;DHT22;32204;49.160;8.580;2023-04-30T15:50:06;19.20;99.90
46490;DHT22;32204;49.160;8.580;2023-04-30T15:52:31;19.10;99.90
46490;DHT22;32204;49.160;8.580;2023-04-30T15:54:57;19.20;99.90